Time;durP1;ratioP1;P1;durP2;ratioP2;P2;SDS_P1;SDS_P2;PMS_P1;PMS_P2;Temp;Humidity;BMP_temperature;BMP_pressure;BME280_temperature;BME280_humidity;BME280_pressure;Samples;Min_cycle;Max_cycle;Signal;HPM_P1;HPM_P2
2021/12/06 00:02:19;;;;;;;30.95;10.40;;;;;;;-1.68;91.03;93020.25;4894590;29;20065;-63
2021/12/06 00:04:48;;;;;;;25.45;10.00;;;;;;;-1.64;90.84;93035.31;4894951;29;20502;-63
2021/12/06 00:07:18;;;;;;;23.33;9.95;;;;;;;-1.58;90.60;93035.00;4894686;29;20082;-63
2021/12/06 00:09:45;;;;;;;25.33;9.88;;;;;;;-1.59;90.34;93036.13;4894742;29;20497;-63
2021/12/06 00:12:14;;;;;;;21.07;9.10;;;;;;;-1.83;90.37;93033.47;4894798;29;20056;-63
2021/12/06 00:14:42;;;;;;;19.20;8.55;;;;;;;-1.71;90.10;93031.72;4895082;29;20049;-63
2021/12/06 00:17:11;;;;;;;19.27;9.68;;;;;;;-1.65;89.89;93030.28;4909120;29;20044;-63
2021/12/06 00:19:39;;;;;;;20.35;9.23;;;;;;;-1.69;90.00;93041.00;4895022;29;20071;-63
2021/12/06 00:22:22;;;;;;;16.38;7.95;;;;;;;-1.62;89.78;93038.41;4894515;29;20051;-62
2021/12/06 00:24:52;;;;;;;17.63;7.87;;;;;;;-1.52;89.37;93037.03;4895029;29;20054;-63
2021/12/06 00:27:19;;;;;;;16.90;7.25;;;;;;;-1.51;89.54;93040.50;4894659;29;20056;-63
2021/12/06 00:29:46;;;;;;;19.65;8.23;;;;;;;-1.43;89.22;93040.25;4894765;29;20040;-63
2021/12/06 00:32:14;;;;;;;25.27;10.00;;;;;;;-1.50;88.75;93039.38;4894686;29;20060;-63
2021/12/06 00:34:41;;;;;;;23.10;8.95;;;;;;;-1.78;89.16;93042.38;4894554;29;20180;-63
2021/12/06 00:37:19;;;;;;;21.57;8.77;;;;;;;-2.10;90.82;93048.72;4895279;29;20055;-62
2021/12/06 00:39:55;;;;;;;29.92;9.60;;;;;;;-2.09;90.89;93042.25;4898284;29;20055;-63
2021/12/06 00:42:23;;;;;;;25.42;9.30;;;;;;;-1.94;90.51;93053.25;4897679;29;20869;-63
2021/12/06 00:44:51;;;;;;;23.85;9.45;;;;;;;-1.86;90.71;93060.28;4898272;29;20044;-63
2021/12/06 00:47:19;;;;;;;25.35;9.38;;;;;;;-1.71;90.25;93050.53;4915435;29;20513;-63
2021/12/06 00:49:47;;;;;;;24.77;9.47;;;;;;;-1.64;89.64;93054.13;4917100;29;20044;-63
2021/12/06 00:52:14;;;;;;;22.83;9.30;;;;;;;-1.63;89.48;93060.28;4916679;29;20052;-63
2021/12/06 00:54:42;;;;;;;24.35;9.32;;;;;;;-1.57;89.55;93047.31;4916826;29;20060;-63
2021/12/06 00:57:11;;;;;;;21.90;9.15;;;;;;;-1.48;88.98;93055.94;4916702;29;20044;-63
2021/12/06 00:59:38;;;;;;;24.85;10.85;;;;;;;-1.47;88.99;93060.97;4916763;29;20083;-63
2021/12/06 01:02:07;;;;;;;23.80;9.43;;;;;;;-1.49;88.83;93060.53;4916305;29;20051;-63
2021/12/06 01:04:38;;;;;;;21.17;8.52;;;;;;;-1.45;88.71;93065.97;4931177;29;20095;-61
2021/12/06 01:07:07;;;;;;;21.88;9.20;;;;;;;-1.45;88.82;93077.53;4916130;29;20044;-61
2021/12/06 01:09:34;;;;;;;19.40;8.52;;;;;;;-1.45;88.74;93072.13;4916886;29;20079;-61
2021/12/06 01:12:00;;;;;;;19.25;8.80;;;;;;;-1.42;88.71;93073.31;4914844;29;20048;-61
2021/12/06 01:14:27;;;;;;;19.90;8.60;;;;;;;-1.51;88.62;93076.28;4915486;29;20044;-61
2021/12/06 01:16:54;;;;;;;17.77;7.25;;;;;;;-1.41;88.65;93080.25;4916609;29;20044;-62
2021/12/06 01:19:27;;;;;;;16.60;7.35;;;;;;;-1.35;88.35;93078.81;4915812;29;20751;-62
2021/12/06 01:24:40;;;;;;;19.05;8.18;;;;;;;-1.34;88.41;93093.06;4916778;29;20048;-62
2021/12/06 01:27:34;;;;;;;21.27;8.80;;;;;;;-1.57;88.81;93090.34;4916220;29;20055;-62
2021/12/06 01:30:17;;;;;;;28.88;9.02;;;;;;;-1.91;90.58;93099.03;4915956;29;20048;-63
2021/12/06 01:33:06;;;;;;;18.55;7.82;;;;;;;-1.61;89.52;93101.84;4916274;29;20047;-62
2021/12/06 01:41:04;;;;;;;19.97;8.13;;;;;;;-1.48;89.30;93102.44;4915397;29;20052;-61
2021/12/06 01:43:30;;;;;;;21.42;7.68;;;;;;;-1.45;89.28;93103.63;4916296;29;20103;-63
2021/12/06 01:45:58;;;;;;;25.90;9.23;;;;;;;-1.51;89.69;93107.75;4915119;29;20410;-61
2021/12/06 01:48:25;;;;;;;21.50;8.68;;;;;;;-1.55;89.61;93106.91;4915372;29;20044;-62
2021/12/06 01:50:51;;;;;;;20.63;8.45;;;;;;;-1.64;89.71;93107.16;4914465;29;20040;-62
2021/12/06 01:53:18;;;;;;;22.90;7.63;;;;;;;-1.48;89.12;93107.06;4915621;29;20069;-62
2021/12/06 01:55:45;;;;;;;19.02;7.80;;;;;;;-1.50;89.38;93114.72;4915876;29;20040;-62
2021/12/06 01:58:12;;;;;;;18.00;7.28;;;;;;;-1.46;89.21;93121.69;4915150;29;20052;-62
2021/12/06 02:00:49;;;;;;;35.22;8.50;;;;;;;-1.55;89.03;93125.75;4914490;29;20044;-62
2021/12/06 02:03:16;;;;;;;19.98;8.27;;;;;;;-1.68;89.65;93125.94;4915725;29;20048;-62
2021/12/06 02:05:47;;;;;;;20.93;8.17;;;;;;;-1.73;90.01;93131.63;4915567;29;20044;-62
2021/12/06 02:08:15;;;;;;;19.70;7.45;;;;;;;-1.74;89.89;93130.06;4915263;29;20058;-62
2021/12/06 02:10:43;;;;;;;22.00;7.82;;;;;;;-1.81;89.94;93135.31;4915247;29;20046;-62
2021/12/06 02:13:10;;;;;;;18.38;7.32;;;;;;;-1.82;90.16;93129.13;4915219;29;20058;-62
2021/12/06 02:15:49;;;;;;;42.25;8.05;;;;;;;-1.89;90.39;93136.28;4915828;29;20052;-62
2021/12/06 02:19:04;;;;;;;21.33;7.93;;;;;;;-1.90;90.69;93138.22;4915343;29;20054;-62
2021/12/06 02:21:14;;;;;;;34.20;12.68;;;;;;;-1.77;90.94;93141.53;4911037;29;20055;-62
2021/12/06 02:23:41;;;;;;;34.40;9.25;;;;;;;-1.82;90.87;93141.81;4929894;29;20054;-62
2021/12/06 02:26:08;;;;;;;32.15;8.10;;;;;;;-2.04;91.35;93141.41;4915061;29;20497;-62
2021/12/06 02:28:35;;;;;;;54.83;9.05;;;;;;;-2.14;91.65;93149.25;4915527;29;20044;-62
2021/12/06 02:31:02;;;;;;;26.10;7.80;;;;;;;-1.95;91.54;93159.22;4914767;29;20308;-62
2021/12/06 02:33:29;;;;;;;24.73;7.57;;;;;;;-1.92;91.24;93159.31;4915241;29;20504;-62
2021/12/06 02:35:57;;;;;;;42.00;8.85;;;;;;;-1.92;91.45;93164.69;4914490;29;20044;-61
2021/12/06 02:38:23;;;;;;;26.30;8.18;;;;;;;-1.83;90.99;93164.47;4915303;29;20043;-62
2021/12/06 02:40:50;;;;;;;23.55;7.50;;;;;;;-1.83;91.55;93164.47;4914982;29;20052;-62
2021/12/06 02:43:17;;;;;;;28.00;8.30;;;;;;;-1.75;91.26;93166.16;4914652;29;20044;-62
2021/12/06 02:45:45;;;;;;;25.17;8.25;;;;;;;-1.63;90.66;93174.06;4909575;29;20047;-62
2021/12/06 02:48:14;;;;;;;25.73;8.10;;;;;;;-1.76;90.81;93179.97;4895745;29;20049;-62
2021/12/06 02:50:50;;;;;;;23.95;7.80;;;;;;;-1.65;90.84;93181.72;4896204;29;20057;-62
2021/12/06 02:53:19;;;;;;;34.10;8.65;;;;;;;-1.77;91.13;93181.09;4895729;29;20048;-61
2021/12/06 02:55:53;;;;;;;42.47;8.73;;;;;;;-1.78;91.64;93180.31;4896185;29;20059;-62
2021/12/06 03:01:06;;;;;;;25.45;8.65;;;;;;;-1.68;91.86;93184.34;4894933;29;20074;-61
2021/12/06 03:03:33;;;;;;;27.17;9.18;;;;;;;-1.78;91.71;93185.69;4895823;29;20052;-62
2021/12/06 03:06:00;;;;;;;23.30;8.63;;;;;;;-1.79;92.00;93188.72;4895165;29;20052;-61
2021/12/06 03:08:42;;;;;;;30.43;9.53;;;;;;;-1.69;91.39;93188.94;4895633;29;20051;-62
2021/12/06 03:11:19;;;;;;;32.15;12.70;;;;;;;-1.65;91.44;93187.09;4895158;29;20057;-61
2021/12/06 03:13:47;;;;;;;30.50;12.30;;;;;;;-1.58;90.65;93191.81;4895475;29;20065;-62
2021/12/06 03:16:14;;;;;;;82.50;36.38;;;;;;;-1.53;90.30;93194.25;4895350;29;20059;-62
2021/12/06 03:18:43;;;;;;;29.48;9.48;;;;;;;-1.44;89.95;93189.41;4895903;29;20111;-62
2021/12/06 03:21:10;;;;;;;24.00;8.97;;;;;;;-1.38;89.78;93191.81;4894988;29;20056;-62
2021/12/06 03:23:38;;;;;;;37.83;9.20;;;;;;;-1.42;89.86;93192.50;4895631;29;20056;-62
2021/12/06 03:26:06;;;;;;;25.40;9.57;;;;;;;-1.34;90.00;93200.72;4895131;29;20049;-62
2021/12/06 03:28:38;;;;;;;26.67;9.50;;;;;;;-1.42;89.87;93203.25;4895615;29;20041;-62
2021/12/06 03:31:06;;;;;;;28.38;10.25;;;;;;;-1.37;90.21;93204.09;4894977;29;20838;-62
2021/12/06 03:33:36;;;;;;;36.43;10.30;;;;;;;-1.76;91.14;93206.84;4895652;29;20055;-62
2021/12/06 03:36:07;;;;;;;75.47;10.75;;;;;;;-1.85;91.01;93210.53;4893662;29;20054;-61
2021/12/06 03:38:36;;;;;;;50.20;9.98;;;;;;;-2.14;93.24;93213.78;4895364;29;20048;-62
2021/12/06 03:41:08;;;;;;;39.25;9.57;;;;;;;-2.01;93.21;93215.22;4894711;29;20055;-61
2021/12/06 03:43:36;;;;;;;24.77;8.82;;;;;;;-1.65;92.09;93214.00;4894176;29;20048;-62
2021/12/06 03:46:04;;;;;;;24.60;9.80;;;;;;;-1.52;91.36;93216.53;4902215;29;20044;-62
2021/12/06 03:48:31;;;;;;;27.85;9.63;;;;;;;-1.41;91.31;93221.00;4914403;29;20040;-62
2021/12/06 03:50:59;;;;;;;24.77;8.80;;;;;;;-1.49;90.88;93229.25;4913398;29;20083;-61
2021/12/06 03:53:26;;;;;;;25.95;9.23;;;;;;;-1.52;90.88;93220.00;4928871;29;20050;-62
2021/12/06 03:55:53;;;;;;;29.92;9.93;;;;;;;-1.41;91.00;93221.00;4913772;29;20078;-62
2021/12/06 03:58:21;;;;;;;28.27;9.83;;;;;;;-1.43;90.71;93228.63;4913204;29;20103;-62
2021/12/06 04:00:48;;;;;;;32.33;10.00;;;;;;;-1.49;90.89;93219.31;4914070;29;20058;-62
2021/12/06 04:03:16;;;;;;;29.17;10.10;;;;;;;-1.38;91.07;93229.47;4913432;29;20056;-62
2021/12/06 04:05:43;;;;;;;28.08;9.50;;;;;;;-1.45;91.04;93238.19;4914034;29;20040;-62
2021/12/06 04:08:10;;;;;;;30.60;9.98;;;;;;;-1.34;91.40;93233.00;4912530;29;20056;-62
2021/12/06 04:10:37;;;;;;;58.43;22.83;;;;;;;-1.27;91.08;93236.63;4914116;29;20051;-62
2021/12/06 04:13:04;;;;;;;36.50;12.30;;;;;;;-1.38;90.91;93234.88;4915685;29;20059;-62
2021/12/06 04:15:33;;;;;;;35.70;12.90;;;;;;;-1.37;91.11;93239.09;4917804;29;20054;-62
2021/12/06 04:18:00;;;;;;;31.42;10.88;;;;;;;-1.30;90.81;93237.31;4917015;29;20044;-62
2021/12/06 04:20:27;;;;;;;28.33;9.88;;;;;;;-1.26;90.59;93248.16;4917833;29;20072;-62
2021/12/06 04:22:54;;;;;;;29.37;10.27;;;;;;;-1.31;90.79;93251.13;4917559;29;20044;-62
2021/12/06 04:25:21;;;;;;;31.27;10.75;;;;;;;-1.38;91.02;93262.56;4916827;29;20218;-62
2021/12/06 04:27:55;;;;;;;33.08;11.02;;;;;;;-1.31;91.18;93264.59;4917839;29;20074;-62
2021/12/06 04:30:24;;;;;;;31.98;10.50;;;;;;;-1.34;90.93;93255.31;4916806;29;20807;-62
2021/12/06 04:32:53;;;;;;;32.63;10.98;;;;;;;-1.44;91.42;93263.97;4917484;29;20046;-62
2021/12/06 04:35:22;;;;;;;36.40;11.37;;;;;;;-1.36;91.58;93262.19;4916642;29;20161;-63
2021/12/06 04:37:49;;;;;;;34.17;10.88;;;;;;;-1.31;91.44;93267.28;4917355;29;20050;-63
2021/12/06 04:40:15;;;;;;;34.22;11.77;;;;;;;-1.31;91.64;93276.16;4917149;29;20044;-63
2021/12/06 04:42:42;;;;;;;31.83;11.52;;;;;;;-1.21;91.25;93280.97;4917155;29;20047;-63
2021/12/06 04:45:11;;;;;;;34.47;11.60;;;;;;;-1.10;91.21;93277.69;4915734;29;20048;-63
2021/12/06 04:47:39;;;;;;;36.00;11.10;;;;;;;-1.15;90.91;93269.88;4898356;29;20045;-64
2021/12/06 04:50:08;;;;;;;33.78;11.10;;;;;;;-1.24;91.12;93281.66;4897710;29;20047;-62
2021/12/06 04:52:36;;;;;;;49.17;16.58;;;;;;;-1.16;91.48;93289.88;4898264;29;20129;-62
2021/12/06 04:55:10;;;;;;;35.67;11.88;;;;;;;-1.08;91.41;93286.94;4896316;29;20052;-62
2021/12/06 04:57:42;;;;;;;33.92;11.32;;;;;;;-1.15;90.95;93292.19;4898309;29;20049;-62
2021/12/06 05:00:48;;;;;;;37.80;13.70;;;;;;;-1.22;91.45;93290.16;4897564;29;20044;-62
2021/12/06 05:03:17;;;;;;;38.63;13.07;;;;;;;-1.18;91.92;93287.53;4857308;29;20059;-62
2021/12/06 05:05:52;;;;;;;38.70;14.02;;;;;;;-1.17;91.64;93294.47;4892010;29;20590;-62
2021/12/06 05:08:25;;;;;;;39.53;12.43;;;;;;;-1.15;91.37;93296.81;4896614;29;20075;-62
2021/12/06 05:10:54;;;;;;;35.80;11.63;;;;;;;-1.19;91.67;93296.72;4897847;29;20041;-63
2021/12/06 05:13:22;;;;;;;36.33;12.03;;;;;;;-1.18;91.62;93301.00;4896962;29;20195;-62
2021/12/06 05:15:49;;;;;;;32.97;11.68;;;;;;;-1.10;91.59;93293.84;4897830;29;20044;-62
2021/12/06 05:18:16;;;;;;;35.55;11.65;;;;;;;-1.02;91.09;93300.91;4897146;29;20049;-62
2021/12/06 05:20:44;;;;;;;35.08;13.02;;;;;;;-1.04;91.24;93300.47;4897971;29;20513;-63
2021/12/06 05:23:11;;;;;;;35.40;13.13;;;;;;;-1.02;91.44;93311.69;4896945;29;20052;-63
2021/12/06 05:25:39;;;;;;;33.27;12.03;;;;;;;-0.92;91.09;93315.69;4897768;29;20044;-62
2021/12/06 05:28:06;;;;;;;35.65;12.55;;;;;;;-0.88;90.77;93330.00;4897061;29;20048;-63
2021/12/06 05:30:34;;;;;;;36.40;13.70;;;;;;;-0.86;90.72;93320.44;4897765;29;20059;-63
2021/12/06 05:33:02;;;;;;;40.58;13.98;;;;;;;-0.94;90.61;93329.53;4911343;29;20398;-62
2021/12/06 05:35:29;;;;;;;45.20;15.00;;;;;;;-1.10;91.01;93326.91;4897682;29;20048;-62
2021/12/06 05:37:58;;;;;;;43.07;14.73;;;;;;;-0.98;91.48;93325.22;4896589;29;20059;-61
2021/12/06 05:40:31;;;;;;;35.65;13.70;;;;;;;-0.90;91.14;93329.59;4896366;29;20036;-63
2021/12/06 05:42:59;;;;;;;38.65;13.50;;;;;;;-0.85;90.84;93329.28;4895109;29;20057;-62
2021/12/06 05:45:28;;;;;;;37.85;13.45;;;;;;;-0.77;90.53;93339.06;4899786;29;20040;-63
2021/12/06 05:47:55;;;;;;;38.92;13.95;;;;;;;-0.75;90.39;93344.09;4915308;29;20056;-62
2021/12/06 05:50:24;;;;;;;40.17;14.20;;;;;;;-0.82;90.55;93342.81;4916044;29;20040;-62
2021/12/06 05:52:54;;;;;;;38.72;14.00;;;;;;;-0.86;91.15;93349.28;4914922;29;20044;-63
2021/12/06 05:55:26;;;;;;;37.15;13.07;;;;;;;-1.33;91.93;93348.38;4915255;29;20513;-63
2021/12/06 05:57:57;;;;;;;36.78;13.02;;;;;;;-1.02;91.80;93355.53;4916171;29;20040;-63
2021/12/06 06:00:28;;;;;;;42.08;14.68;;;;;;;-0.93;91.32;93359.91;4914848;29;20074;-63
2021/12/06 06:02:54;;;;;;;37.60;14.20;;;;;;;-0.82;91.41;93369.00;4913458;29;20048;-63
2021/12/06 06:05:22;;;;;;;39.60;13.57;;;;;;;-0.76;90.78;93366.78;4915761;29;20071;-63
2021/12/06 06:07:49;;;;;;;39.13;13.60;;;;;;;-0.85;91.29;93365.06;4915328;29;20071;-63
2021/12/06 06:10:16;;;;;;;37.20;13.48;;;;;;;-0.81;90.93;93371.31;4914935;29;20055;-63
2021/12/06 06:12:44;;;;;;;36.17;13.45;;;;;;;-0.69;90.58;93383.84;4915544;29;20056;-63
2021/12/06 06:15:12;;;;;;;35.00;13.13;;;;;;;-0.74;90.32;93384.16;4915078;29;20490;-63
2021/12/06 06:17:43;;;;;;;32.25;12.25;;;;;;;-0.71;90.63;93385.34;4915556;29;20056;-63
2021/12/06 06:20:18;;;;;;;39.42;14.45;;;;;;;-0.67;91.00;93388.88;4914982;29;20047;-63
2021/12/06 06:22:45;;;;;;;34.70;12.50;;;;;;;-0.61;90.46;93390.91;4915517;29;20048;-63
2021/12/06 06:25:14;;;;;;;38.60;13.38;;;;;;;-0.63;90.35;93395.13;4914879;29;20055;-63
2021/12/06 06:27:41;;;;;;;35.87;12.63;;;;;;;-0.67;90.11;93392.34;4915380;29;20487;-63
2021/12/06 06:30:08;;;;;;;33.78;12.98;;;;;;;-0.69;89.94;93402.72;4913271;29;20175;-63
2021/12/06 06:32:35;;;;;;;34.70;12.45;;;;;;;-0.71;89.98;93404.97;4915361;29;20044;-63
2021/12/06 06:35:03;;;;;;;34.60;13.40;;;;;;;-0.71;90.13;93409.59;4913796;29;20056;-63
2021/12/06 06:37:30;;;;;;;34.72;12.65;;;;;;;-0.74;90.08;93419.19;4914975;29;20046;-64
2021/12/06 06:39:57;;;;;;;35.73;12.63;;;;;;;-0.75;90.27;93414.91;4914538;29;20063;-64
2021/12/06 06:42:24;;;;;;;35.95;13.40;;;;;;;-0.72;90.17;93419.59;4914971;29;20413;-63
2021/12/06 06:44:52;;;;;;;35.90;12.95;;;;;;;-0.86;90.40;93425.50;4915112;29;20079;-64
2021/12/06 06:47:19;;;;;;;34.55;12.25;;;;;;;-0.89;90.61;93428.88;4896849;29;20051;-64
2021/12/06 06:49:46;;;;;;;30.73;11.43;;;;;;;-0.84;90.63;93423.22;4896174;29;20052;-63
2021/12/06 06:52:18;;;;;;;33.10;12.20;;;;;;;-0.82;90.78;93420.19;4895415;29;20057;-63
2021/12/06 06:54:44;;;;;;;31.33;13.27;;;;;;;-0.88;91.05;93425.06;4896162;29;20057;-63
2021/12/06 06:57:11;;;;;;;30.30;12.32;;;;;;;-0.89;90.90;93426.19;4895319;29;20051;-64
2021/12/06 06:59:38;;;;;;;34.20;13.30;;;;;;;-0.88;91.16;93435.06;4896160;29;20040;-63
2021/12/06 07:02:05;;;;;;;31.98;12.52;;;;;;;-0.86;91.38;93435.50;4893937;29;20061;-63
2021/12/06 07:04:32;;;;;;;36.97;13.50;;;;;;;-0.82;91.26;93436.34;4896081;29;20048;-63
2021/12/06 07:06:59;;;;;;;28.95;12.15;;;;;;;-0.82;90.94;93439.81;4894952;29;20048;-64
2021/12/06 07:09:26;;;;;;;32.25;12.82;;;;;;;-0.75;91.25;93446.47;4894634;29;20502;-63
2021/12/06 07:11:53;;;;;;;29.70;12.38;;;;;;;-0.78;90.50;93450.66;4895946;29;20583;-63
2021/12/06 07:14:20;;;;;;;29.92;12.50;;;;;;;-0.83;90.85;93451.69;4894752;29;20765;-64
2021/12/06 07:16:48;;;;;;;31.27;12.47;;;;;;;-0.68;91.05;93463.56;4895638;29;20045;-63
2021/12/06 07:19:15;;;;;;;32.38;12.50;;;;;;;-0.63;90.56;93468.66;4895029;29;20062;-64
2021/12/06 07:21:56;;;;;;;30.40;12.40;;;;;;;-0.69;90.46;93472.00;4895396;29;20470;-63
2021/12/06 07:24:23;;;;;;;27.75;11.45;;;;;;;-0.64;90.35;93475.19;4895376;29;20050;-64
2021/12/06 07:26:50;;;;;;;29.52;12.57;;;;;;;-0.79;90.24;93470.63;4895185;29;20044;-64
2021/12/06 07:29:17;;;;;;;31.43;13.10;;;;;;;-0.67;89.95;93472.41;4893624;29;20052;-64
2021/12/06 07:31:43;;;;;;;29.90;12.38;;;;;;;-0.51;89.97;93481.19;4909876;29;20040;-64
2021/12/06 07:34:10;;;;;;;28.15;11.50;;;;;;;-0.42;89.52;93475.59;4909264;29;20048;-64
2021/12/06 07:36:37;;;;;;;29.38;12.10;;;;;;;-0.42;89.49;93486.38;4895501;29;20045;-64
2021/12/06 07:39:04;;;;;;;27.92;11.63;;;;;;;-0.47;89.56;93498.22;4893556;29;20052;-64
2021/12/06 07:41:31;;;;;;;33.50;13.13;;;;;;;-0.45;89.07;93489.78;4895561;29;20044;-64
2021/12/06 07:43:59;;;;;;;30.08;12.30;;;;;;;-0.49;89.49;93499.72;4894881;29;20490;-63
2021/12/06 07:46:25;;;;;;;30.00;11.80;;;;;;;-0.57;89.75;93501.50;4902299;29;20075;-64
2021/12/06 07:48:53;;;;;;;33.30;12.57;;;;;;;-0.47;89.66;93505.53;4905401;29;20060;-64
2021/12/06 07:51:25;;;;;;;37.67;14.60;;;;;;;-0.72;90.24;93513.13;4901553;29;21286;-64
2021/12/06 07:53:52;;;;;;;36.73;16.70;;;;;;;-0.56;90.12;93508.44;4913609;29;20411;-63
2021/12/06 07:56:19;;;;;;;32.00;13.35;;;;;;;-0.39;89.51;93515.31;4912060;29;20046;-63
2021/12/06 07:58:48;;;;;;;25.30;10.30;;;;;;;-0.69;89.70;93521.25;4913855;29;20119;-63
2021/12/06 08:01:15;;;;;;;26.55;9.93;;;;;;;-0.93;90.62;93510.75;4912882;29;20508;-62
2021/12/06 08:03:44;;;;;;;24.15;10.02;;;;;;;-0.62;90.40;93513.34;4913865;29;20036;-63
2021/12/06 08:06:11;;;;;;;21.97;9.33;;;;;;;-0.73;90.55;93520.41;4912848;29;20062;-62
2021/12/06 08:08:40;;;;;;;24.48;10.48;;;;;;;-0.51;90.23;93524.31;4913708;29;20052;-63
2021/12/06 08:11:11;;;;;;;28.50;12.60;;;;;;;-0.36;89.88;93530.78;4913213;29;20052;-64
2021/12/06 08:13:40;;;;;;;27.80;11.82;;;;;;;-0.35;89.32;93536.97;4914257;29;20048;-63
2021/12/06 08:16:12;;;;;;;24.85;9.80;;;;;;;-0.75;90.21;93530.75;4913542;29;20044;-64
2021/12/06 08:18:39;;;;;;;28.10;11.33;;;;;;;-1.07;91.59;93535.47;4914028;29;20048;-64
2021/12/06 08:21:06;;;;;;;24.85;10.10;;;;;;;-0.98;91.90;93529.91;4913258;29;20066;-63
2021/12/06 08:23:34;;;;;;;25.55;10.48;;;;;;;-0.88;91.14;93532.81;4913924;29;20043;-64
2021/12/06 08:26:04;;;;;;;25.95;10.52;;;;;;;-0.81;91.38;93527.56;4913364;29;20609;-64
2021/12/06 08:28:32;;;;;;;23.02;10.27;;;;;;;-0.87;90.95;93539.75;4914006;29;20044;-63
2021/12/06 08:30:58;;;;;;;24.73;10.77;;;;;;;-0.83;90.41;93547.91;4913677;29;20404;-64
2021/12/06 08:33:25;;;;;;;23.33;10.43;;;;;;;-0.61;90.49;93551.84;4913579;29;20083;-63
2021/12/06 08:35:53;;;;;;;23.27;10.18;;;;;;;-0.38;90.72;93551.94;4913822;29;20118;-64
2021/12/06 08:38:23;;;;;;;28.10;11.95;;;;;;;-0.20;89.36;93554.97;4912378;29;20683;-64
2021/12/06 08:40:52;;;;;;;21.67;9.57;;;;;;;-0.13;88.64;93557.81;4913877;29;20066;-63
2021/12/06 08:43:20;;;;;;;19.67;9.53;;;;;;;0.06;88.31;93562.41;4913295;29;20249;-64
2021/12/06 08:46:05;;;;;;;20.83;9.45;;;;;;;0.10;87.45;93562.44;4908400;29;20088;-63
2021/12/06 08:48:35;;;;;;;31.00;13.20;;;;;;;-0.11;88.64;93562.84;4894286;29;20883;-63
2021/12/06 08:51:10;;;;;;;30.00;14.15;;;;;;;0.11;88.09;93566.72;4894699;29;20091;-64
2021/12/06 08:53:39;;;;;;;26.95;11.50;;;;;;;0.06;87.20;93561.59;4894944;29;20045;-63
2021/12/06 08:56:06;;;;;;;23.07;9.60;;;;;;;0.34;86.95;93562.13;4893864;29;20489;-64
2021/12/06 08:58:34;;;;;;;22.48;10.05;;;;;;;0.48;85.77;93566.22;4896392;29;20045;-63
2021/12/06 09:01:01;;;;;;;20.27;9.68;;;;;;;0.75;85.20;93562.44;4897943;29;20044;-63
2021/12/06 09:03:30;;;;;;;20.17;8.80;;;;;;;0.79;84.39;93565.97;4897711;29;20047;-63
2021/12/06 09:05:58;;;;;;;18.67;7.85;;;;;;;1.05;83.86;93569.84;4898012;29;20107;-63
2021/12/06 09:08:25;;;;;;;15.33;6.83;;;;;;;0.76;83.71;93574.00;4897968;29;20290;-64
2021/12/06 09:10:53;;;;;;;19.48;8.25;;;;;;;1.07;83.41;93581.06;4898021;29;20058;-64
2021/12/06 09:13:22;;;;;;;15.75;7.45;;;;;;;0.96;83.15;93582.81;4896950;29;20051;-64
2021/12/06 09:15:51;;;;;;;16.55;7.72;;;;;;;0.84;83.33;93586.47;4897731;29;20047;-64
2021/12/06 09:18:22;;;;;;;15.95;7.45;;;;;;;0.41;84.72;93585.00;4897482;29;20041;-64
2021/12/06 09:20:51;;;;;;;19.30;9.43;;;;;;;0.92;83.69;93592.78;4897595;29;20048;-64
2021/12/06 09:23:18;;;;;;;22.50;10.90;;;;;;;1.11;83.61;93598.09;4897422;29;20037;-64
2021/12/06 09:25:47;;;;;;;25.08;10.80;;;;;;;1.32;82.29;93597.63;4898103;29;20040;-64
2021/12/06 09:28:16;;;;;;;17.27;7.97;;;;;;;1.45;81.26;93603.63;4897118;29;20523;-62
2021/12/06 09:30:43;;;;;;;13.48;6.40;;;;;;;1.77;80.54;93600.53;4898039;29;20505;-63
2021/12/06 09:33:14;;;;;;;11.33;5.70;;;;;;;1.89;78.78;93608.44;4897289;29;20048;-62
2021/12/06 09:35:44;;;;;;;9.32;4.65;;;;;;;1.66;78.48;93608.53;4897943;29;20041;-62
2021/12/06 09:38:15;;;;;;;10.93;5.30;;;;;;;1.61;79.46;93608.88;4896926;29;20383;-63
2021/12/06 09:40:47;;;;;;;9.75;5.05;;;;;;;1.64;78.56;93604.63;4897884;29;20111;-63
2021/12/06 09:43:15;;;;;;;8.70;4.63;;;;;;;1.43;79.68;93597.78;4896871;29;20048;-64
2021/12/06 09:45:43;;;;;;;9.73;5.00;;;;;;;1.37;79.52;93605.44;4902471;29;20056;-64
2021/12/06 09:48:12;;;;;;;10.88;4.90;;;;;;;1.56;79.70;93606.47;4914575;29;20402;-64
2021/12/06 09:50:58;;;;;;;10.57;4.55;;;;;;;1.27;80.74;93603.38;4916373;29;20044;-63
2021/12/06 09:53:33;;;;;;;12.30;5.30;;;;;;;1.40;80.23;93612.81;4929766;29;20044;-63
2021/12/06 09:56:06;;;;;;;14.32;6.95;;;;;;;1.26;80.31;93609.13;4915767;29;20052;-63
2021/12/06 09:58:35;;;;;;;12.43;6.17;;;;;;;1.16;80.81;93607.81;4916276;29;20052;-63
2021/12/06 10:01:09;;;;;;;15.68;7.00;;;;;;;1.08;80.95;93604.22;4915904;29;20126;-63
2021/12/06 10:03:36;;;;;;;14.60;6.10;;;;;;;1.13;80.60;93603.16;4916063;29;20663;-63
2021/12/06 10:06:05;;;;;;;13.57;6.78;;;;;;;1.02;80.60;93605.66;4913986;29;20060;-63
2021/12/06 10:08:36;;;;;;;19.40;9.27;;;;;;;1.28;79.92;93604.13;4915387;29;20043;-63
2021/12/06 10:11:07;;;;;;;18.70;8.00;;;;;;;1.54;78.27;93601.41;4914703;29;20048;-63
2021/12/06 10:13:34;;;;;;;10.68;5.57;;;;;;;1.76;76.85;93599.00;4915773;29;20044;-63
2021/12/06 10:16:02;;;;;;;9.75;5.03;;;;;;;1.63;76.57;93600.34;4915308;29;20044;-63
2021/12/06 10:18:29;;;;;;;13.88;7.07;;;;;;;2.75;73.26;93593.09;4915783;29;20051;-63
2021/12/06 10:20:56;;;;;;;11.13;6.32;;;;;;;3.04;71.80;93592.56;4915234;29;20048;-62
2021/12/06 10:23:23;;;;;;;12.30;5.53;;;;;;;2.76;72.25;93593.91;4915466;29;20044;-63
2021/12/06 10:25:53;;;;;;;10.45;5.40;;;;;;;2.60;73.10;93604.97;4915675;29;20048;-63
2021/12/06 10:28:23;;;;;;;11.32;5.40;;;;;;;2.55;72.79;93592.53;4915221;29;20056;-63
2021/12/06 10:30:56;;;;;;;11.35;5.65;;;;;;;2.74;71.91;93593.50;4915649;29;20040;-63
2021/12/06 10:33:28;;;;;;;10.48;5.65;;;;;;;3.77;68.56;93587.22;4914547;29;20413;-63
2021/12/06 10:36:18;;;;;;;11.20;5.73;;;;;;;4.12;66.22;93581.16;4915018;29;20048;-62
2021/12/06 10:38:52;;;;;;;23.55;10.10;;;;;;;3.89;67.11;93578.75;4915363;29;20051;-63
2021/12/06 10:41:25;;;;;;;9.35;5.30;;;;;;;4.66;65.34;93584.03;4914773;29;20107;-62
2021/12/06 10:43:57;;;;;;;8.25;4.57;;;;;;;6.89;58.02;93575.34;4915349;29;20063;-62
2021/12/06 10:46:26;;;;;;;8.43;4.65;;;;;;;7.22;56.96;93570.41;4903520;29;20070;-63
2021/12/06 10:48:56;;;;;;;11.87;5.90;;;;;;;9.16;52.22;93577.19;4896454;29;20047;-62
2021/12/06 10:51:24;;;;;;;10.38;6.10;;;;;;;10.42;47.18;93581.25;4895105;29;20875;-64
2021/12/06 10:54:01;;;;;;;10.18;6.30;;;;;;;9.20;48.20;93581.41;4896177;29;20166;-63
2021/12/06 10:56:51;;;;;;;10.50;5.75;;;;;;;7.49;52.25;93581.50;4895017;29;20824;-64
2021/12/06 10:59:27;;;;;;;10.23;5.30;;;;;;;5.01;59.18;93582.53;4895639;29;20474;-63
2021/12/06 11:02:02;;;;;;;10.97;5.20;;;;;;;3.37;64.54;93588.94;4896287;29;20045;-63
2021/12/06 11:04:32;;;;;;;12.05;6.00;;;;;;;3.77;64.46;93590.72;4894984;29;20557;-63
2021/12/06 11:07:05;;;;;;;11.45;5.85;;;;;;;4.00;63.93;93590.47;4895613;29;20063;-64
2021/12/06 11:09:35;;;;;;;13.15;4.60;;;;;;;4.21;62.87;93583.53;4895631;29;20041;-64
2021/12/06 11:12:04;;;;;;;13.05;5.82;;;;;;;4.29;62.91;93593.28;4895565;29;20044;-63
2021/12/06 11:14:41;;;;;;;9.83;5.30;;;;;;;3.23;66.59;93591.56;4894624;29;20044;-63
2021/12/06 11:17:11;;;;;;;11.23;5.30;;;;;;;3.05;67.25;93594.91;4895323;29;20053;-63
2021/12/06 11:19:38;;;;;;;14.02;5.72;;;;;;;3.48;65.92;93589.00;4895820;29;20041;-63
2021/12/06 11:22:09;;;;;;;9.65;4.90;;;;;;;3.18;66.93;93596.19;4895225;29;20041;-63
2021/12/06 11:24:39;;;;;;;8.40;4.70;;;;;;;2.22;69.22;93589.88;4895558;29;20053;-63
2021/12/06 11:27:14;;;;;;;11.00;5.30;;;;;;;2.71;68.83;93583.38;4895010;29;20044;-63
2021/12/06 11:29:58;;;;;;;12.20;4.75;;;;;;;2.82;69.16;93586.19;4895663;29;20048;-63
2021/12/06 11:32:32;;;;;;;12.40;5.43;;;;;;;2.83;70.50;93585.03;4894546;29;20350;-63
2021/12/06 11:35:15;;;;;;;9.27;4.80;;;;;;;2.56;70.29;93596.03;4895016;29;20056;-63
2021/12/06 11:37:49;;;;;;;12.13;5.97;;;;;;;2.21;72.43;93597.19;4895446;29;20075;-63
2021/12/06 11:40:26;;;;;;;10.03;5.40;;;;;;;2.57;71.50;93600.28;4895065;29;20047;-63
2021/12/06 11:43:26;;;;;;;9.23;4.95;;;;;;;2.71;70.00;93584.16;4895488;29;20503;-64
2021/12/06 11:45:57;;;;;;;7.65;4.40;;;;;;;5.80;62.11;93583.22;4909137;29;22701;-64
2021/12/06 11:48:26;;;;;;;8.27;4.05;;;;;;;7.37;54.58;93578.09;4913214;29;20840;-63